createdAt,value
2017-09-11T00:01:53.089Z,83.70
2017-09-11T00:04:20.676Z,84.30
2017-09-11T00:06:48.284Z,83.20
2017-09-11T00:09:15.851Z,83.40
2017-09-11T00:11:43.422Z,83.30
2017-09-11T00:14:10.943Z,83.00
2017-09-11T00:16:39.283Z,84.10
2017-09-11T00:19:06.822Z,84.10
2017-09-11T00:21:34.457Z,83.70
2017-09-11T00:24:02.001Z,83.70
2017-09-11T00:26:29.600Z,83.60
2017-09-11T00:28:57.162Z,83.70
2017-09-11T00:31:24.786Z,83.30
2017-09-11T00:33:52.382Z,83.10
2017-09-11T00:36:19.950Z,83.10
2017-09-11T00:38:47.522Z,83.30
2017-09-11T00:41:15.109Z,83.40
2017-09-11T00:43:42.676Z,82.80
2017-09-11T00:46:10.234Z,82.10
2017-09-11T00:48:37.837Z,81.70
2017-09-11T00:51:05.500Z,81.20
2017-09-11T00:53:33.056Z,79.60
2017-09-11T00:56:00.663Z,79.30
2017-09-11T00:58:28.224Z,78.80
2017-09-11T01:00:55.794Z,79.90
2017-09-11T01:03:23.355Z,79.70
2017-09-11T01:05:51.548Z,80.90
2017-09-11T01:08:19.112Z,81.50
2017-09-11T01:10:46.697Z,80.40
2017-09-11T01:13:14.224Z,79.80
2017-09-11T01:15:41.828Z,80.50
2017-09-11T01:18:09.368Z,80.80
2017-09-11T01:20:37.039Z,80.90
2017-09-11T01:23:04.636Z,80.30
2017-09-11T01:25:32.221Z,79.70
2017-09-11T01:28:00.272Z,80.00
2017-09-11T01:30:28.127Z,81.00
2017-09-11T01:32:55.749Z,81.00
2017-09-11T01:35:24.156Z,80.20
2017-09-11T01:37:51.719Z,80.20
2017-09-11T01:40:19.332Z,80.50
2017-09-11T01:42:46.940Z,80.10
2017-09-11T01:45:14.564Z,79.70
2017-09-11T01:47:42.151Z,79.50
2017-09-11T01:50:10.542Z,79.00
2017-09-11T01:52:38.080Z,79.00
2017-09-11T01:55:05.710Z,79.20
2017-09-11T01:57:34.042Z,79.30
2017-09-11T02:00:01.673Z,79.10
2017-09-11T02:02:30.042Z,79.00
2017-09-11T02:04:57.724Z,79.00
2017-09-11T02:07:26.021Z,78.50
2017-09-11T02:09:53.628Z,78.40
2017-09-11T02:12:21.242Z,78.50
2017-09-11T02:14:48.830Z,78.50
2017-09-11T02:17:17.215Z,77.90
2017-09-11T02:19:44.771Z,77.90
2017-09-11T02:22:12.435Z,77.70
2017-09-11T02:24:40.032Z,78.80
2017-09-11T02:27:08.371Z,78.80
2017-09-11T02:29:36.900Z,78.80
2017-09-11T02:32:04.512Z,78.60
2017-09-11T02:34:32.828Z,79.00
2017-09-11T02:37:00.430Z,79.00
2017-09-11T02:39:28.010Z,78.60
2017-09-11T02:41:56.591Z,77.80
2017-09-11T02:44:24.130Z,77.50
2017-09-11T02:46:52.593Z,77.20
2017-09-11T02:49:20.180Z,77.20
2017-09-11T02:51:48.609Z,77.70
2017-09-11T02:54:16.227Z,77.60
2017-09-11T02:56:43.829Z,77.60
2017-09-11T02:59:11.417Z,77.80
2017-09-11T03:01:39.092Z,77.50
2017-09-11T03:04:06.647Z,77.60
2017-09-11T03:06:34.180Z,77.70
2017-09-11T03:09:01.820Z,77.70
2017-09-11T03:11:29.360Z,77.20
2017-09-11T03:13:56.994Z,77.50
2017-09-11T03:16:24.682Z,77.40
2017-09-11T03:18:52.247Z,76.40
2017-09-11T03:21:21.419Z,75.10
2017-09-11T03:23:48.983Z,75.10
2017-09-11T03:26:17.359Z,73.60
2017-09-11T03:28:44.947Z,73.50
2017-09-11T03:31:12.544Z,73.70
2017-09-11T03:33:41.091Z,73.10
2017-09-11T03:36:09.451Z,71.90
2017-09-11T03:38:37.045Z,71.90
2017-09-11T03:41:04.639Z,70.50
2017-09-11T03:43:32.515Z,70.40
2017-09-11T03:46:00.141Z,69.30
2017-09-11T03:48:28.038Z,70.20
2017-09-11T03:50:55.915Z,69.90
2017-09-11T03:53:27.302Z,70.80
2017-09-11T03:55:54.898Z,70.80
2017-09-11T03:58:22.552Z,70.00
2017-09-11T04:00:50.201Z,70.70
2017-09-11T04:03:17.774Z,66.50
2017-09-11T04:05:45.342Z,65.40
2017-09-11T04:08:13.712Z,63.10
2017-09-11T04:10:42.724Z,65.30
2017-09-11T04:13:10.287Z,65.20
2017-09-11T04:15:37.822Z,64.10
2017-09-11T04:18:05.472Z,62.60
2017-09-11T04:20:33.843Z,63.00
2017-09-11T04:23:01.433Z,62.90
2017-09-11T04:25:28.958Z,61.80
2017-09-11T04:27:56.527Z,61.00
2017-09-11T04:30:24.844Z,62.30
2017-09-11T04:32:52.444Z,62.20
2017-09-11T04:35:20.104Z,62.20
2017-09-11T04:37:47.677Z,62.60
2017-09-11T04:40:15.210Z,62.10
2017-09-11T04:42:42.831Z,62.20
2017-09-11T04:45:10.427Z,59.70
2017-09-11T04:47:37.991Z,59.10
2017-09-11T04:50:05.519Z,58.90
2017-09-11T04:52:33.040Z,62.00
2017-09-11T04:55:00.616Z,61.80
2017-09-11T04:57:28.489Z,59.70
2017-09-11T04:59:56.793Z,58.60
2017-09-11T05:02:24.411Z,58.50
2017-09-11T05:04:51.978Z,57.80
2017-09-11T05:07:19.605Z,57.40
2017-09-11T05:09:47.201Z,57.60
2017-09-11T05:12:14.840Z,57.70
2017-09-11T05:14:42.402Z,58.30
2017-09-11T05:17:09.974Z,57.20
2017-09-11T05:19:37.506Z,57.40
2017-09-11T05:22:05.127Z,56.90
2017-09-11T05:24:32.771Z,57.00
2017-09-11T05:27:00.923Z,56.90
2017-09-11T05:29:28.520Z,57.10
2017-09-11T05:31:56.926Z,57.10
2017-09-11T05:34:24.517Z,57.10
2017-09-11T05:36:52.946Z,57.40
2017-09-11T05:39:20.600Z,57.40
2017-09-11T05:41:48.199Z,57.60
2017-09-11T05:44:15.766Z,57.60
2017-09-11T05:46:43.324Z,57.80
2017-09-11T05:49:10.921Z,57.50
2017-09-11T05:51:39.281Z,57.50
2017-09-11T05:54:07.615Z,57.00
2017-09-11T05:56:35.192Z,57.00
2017-09-11T05:59:03.515Z,56.90
2017-09-11T06:01:31.081Z,56.80
2017-09-11T06:03:58.696Z,56.80
2017-09-11T06:06:26.292Z,57.00
2017-09-11T06:08:54.664Z,57.10
2017-09-11T06:11:23.414Z,56.30
2017-09-11T06:13:51.911Z,56.30
2017-09-11T06:16:20.321Z,57.10
2017-09-11T06:18:49.934Z,57.00
2017-09-11T06:21:24.109Z,57.00
2017-09-11T06:23:51.712Z,57.10
2017-09-11T06:26:19.243Z,57.40
2017-09-11T06:28:47.560Z,58.00
2017-09-11T06:31:15.119Z,57.90
2017-09-11T06:33:42.643Z,56.90
2017-09-11T06:36:10.203Z,56.70
2017-09-11T06:38:37.732Z,56.60
2017-09-11T06:41:05.291Z,57.00
2017-09-11T06:43:32.819Z,57.80
2017-09-11T06:46:00.392Z,58.00
2017-09-11T06:48:27.933Z,58.80
2017-09-11T06:50:55.536Z,60.30
2017-09-11T06:53:23.072Z,62.50
2017-09-11T06:55:50.670Z,65.10
2017-09-11T06:58:18.220Z,65.20
2017-09-11T07:00:45.801Z,66.10
2017-09-11T07:03:14.102Z,65.90
2017-09-11T07:05:41.759Z,65.80
2017-09-11T07:08:09.301Z,66.70
2017-09-11T07:10:36.862Z,69.90
2017-09-11T07:13:16.479Z,70.10
2017-09-11T07:15:44.043Z,72.10
2017-09-11T07:18:11.575Z,72.00
2017-09-11T07:20:39.213Z,71.10
2017-09-11T07:23:06.738Z,70.40
2017-09-11T07:25:34.323Z,69.60
2017-09-11T07:28:01.859Z,70.30
2017-09-11T07:30:29.424Z,70.90
2017-09-11T07:32:56.947Z,69.40
2017-09-11T07:35:24.521Z,69.90
2017-09-11T07:37:52.822Z,70.20
2017-09-11T07:40:20.392Z,70.10
2017-09-11T07:42:47.967Z,71.30
2017-09-11T07:45:15.796Z,70.30
2017-09-11T07:47:43.329Z,71.10
2017-09-11T07:50:10.887Z,70.90
2017-09-11T07:52:38.419Z,70.30
2017-09-11T07:55:06.071Z,71.30
2017-09-11T07:57:33.593Z,71.10
2017-09-11T08:00:01.165Z,70.60
2017-09-11T08:02:28.705Z,70.30
2017-09-11T08:04:56.267Z,70.20
2017-09-11T08:07:23.892Z,70.80
2017-09-11T08:09:51.474Z,69.60
2017-09-11T08:12:19.003Z,69.70
2017-09-11T08:14:46.576Z,68.90
2017-09-11T08:17:14.877Z,67.50
2017-09-11T08:19:42.473Z,67.50
2017-09-11T08:22:10.015Z,67.60
2017-09-11T08:24:38.315Z,68.00
2017-09-11T08:27:05.878Z,67.90
2017-09-11T08:29:33.403Z,67.30
2017-09-11T08:32:00.979Z,67.80
2017-09-11T08:34:28.511Z,67.30
2017-09-11T08:36:56.074Z,66.80
2017-09-11T08:39:23.618Z,66.80
2017-09-11T08:41:51.198Z,66.90
2017-09-11T08:44:19.544Z,66.20
2017-09-11T08:46:47.087Z,66.20
2017-09-11T08:49:14.618Z,65.20
2017-09-11T08:51:42.190Z,65.70
2017-09-11T08:54:09.718Z,65.70
2017-09-11T08:56:37.293Z,64.30
2017-09-11T08:59:05.591Z,63.30
2017-09-11T09:01:33.170Z,63.30
2017-09-11T09:04:00.729Z,61.40
2017-09-11T09:06:28.332Z,61.60
2017-09-11T09:08:55.868Z,59.50
2017-09-11T09:11:23.395Z,59.60
2017-09-11T09:13:51.753Z,59.50
2017-09-11T09:16:20.057Z,59.80
2017-09-11T09:18:48.428Z,59.50
2017-09-11T09:21:15.984Z,59.50
2017-09-11T09:23:43.556Z,60.00
2017-09-11T09:26:11.850Z,60.30
2017-09-11T09:28:39.411Z,60.20
2017-09-11T09:31:06.951Z,62.80
2017-09-11T09:33:34.618Z,60.00
2017-09-11T09:36:02.144Z,62.40
2017-09-11T09:38:29.719Z,62.30
2017-09-11T09:40:57.246Z,61.90
2017-09-11T09:43:24.810Z,61.60
2017-09-11T09:45:53.127Z,62.20
2017-09-11T09:48:20.700Z,62.10
2017-09-11T09:50:48.233Z,62.70
2017-09-11T09:53:15.801Z,63.50
2017-09-11T09:55:43.345Z,64.70
2017-09-11T09:58:10.919Z,64.30
2017-09-11T10:00:38.656Z,64.80
2017-09-11T10:03:06.224Z,64.70
2017-09-11T10:05:34.514Z,63.20
2017-09-11T10:08:02.115Z,63.10
2017-09-11T10:10:29.640Z,61.80
2017-09-11T10:12:57.173Z,61.40
2017-09-11T10:15:24.760Z,61.70
2017-09-11T10:17:52.308Z,60.80
2017-09-11T10:20:20.664Z,59.60
2017-09-11T10:22:48.199Z,58.90
2017-09-11T10:25:15.779Z,59.50
2017-09-11T10:27:43.319Z,59.50
2017-09-11T10:30:10.898Z,59.10
2017-09-11T10:32:38.425Z,59.10
2017-09-11T10:35:05.995Z,59.30
2017-09-11T10:37:33.523Z,59.90
2017-09-11T10:40:01.982Z,59.20
2017-09-11T10:42:29.513Z,59.60
2017-09-11T10:44:57.072Z,59.20
2017-09-11T10:47:24.615Z,59.80
2017-09-11T10:49:52.208Z,59.60
2017-09-11T10:52:19.744Z,59.20
2017-09-11T10:54:47.330Z,59.00
2017-09-11T10:57:15.629Z,59.40
2017-09-11T10:59:43.167Z,59.40
2017-09-11T11:02:10.726Z,59.50
2017-09-11T11:04:38.300Z,58.70
2017-09-11T11:07:05.829Z,59.10
2017-09-11T11:09:33.421Z,58.50
2017-09-11T11:12:01.718Z,56.90
2017-09-11T11:14:29.247Z,56.80
2017-09-11T11:16:56.827Z,55.30
2017-09-11T11:19:24.424Z,55.00
2017-09-11T11:21:51.961Z,54.30
2017-09-11T11:24:20.279Z,53.80
2017-09-11T11:26:47.863Z,53.80
2017-09-11T11:29:16.163Z,52.10
2017-09-11T11:31:43.736Z,53.00
2017-09-11T11:34:11.273Z,51.20
2017-09-11T11:36:38.862Z,50.60
2017-09-11T11:39:07.172Z,49.80
2017-09-11T11:42:06.923Z,49.80
2017-09-11T11:44:35.224Z,50.10
2017-09-11T11:47:02.779Z,50.10
2017-09-11T11:49:30.306Z,50.60
2017-09-11T11:51:57.882Z,49.40
2017-09-11T11:54:25.411Z,49.60
2017-09-11T11:56:52.970Z,49.50
2017-09-11T11:59:20.503Z,50.40
2017-09-11T12:01:48.119Z,51.20
2017-09-11T12:04:15.662Z,51.80
2017-09-11T12:06:43.245Z,51.60
2017-09-11T12:09:10.775Z,52.40
2017-09-11T12:11:38.310Z,53.30
2017-09-11T12:14:06.358Z,53.50
2017-09-11T12:16:33.890Z,54.80
2017-09-11T12:19:02.220Z,54.50
2017-09-11T12:21:29.848Z,54.50
2017-09-11T12:23:57.406Z,54.50
2017-09-11T12:26:24.932Z,53.60
2017-09-11T12:28:52.498Z,54.20
2017-09-11T12:31:20.076Z,54.00
2017-09-11T12:33:48.384Z,53.00
2017-09-11T12:36:15.951Z,53.40
2017-09-11T12:38:43.481Z,49.70
2017-09-11T12:41:11.055Z,51.20
2017-09-11T12:43:38.583Z,46.90
2017-09-11T12:46:06.886Z,45.50
2017-09-11T12:48:35.222Z,46.60
2017-09-11T12:51:02.810Z,46.50
2017-09-11T12:53:30.335Z,48.40
2017-09-11T12:55:58.641Z,49.70
2017-09-11T12:58:26.223Z,49.70
2017-09-11T13:00:53.757Z,49.70
2017-09-11T13:03:21.323Z,52.10
2017-09-11T13:05:48.855Z,54.70
2017-09-11T13:08:16.455Z,54.10
2017-09-11T13:10:43.987Z,54.30
2017-09-11T13:13:11.545Z,54.30
2017-09-11T13:15:39.091Z,56.10
2017-09-11T13:18:06.655Z,56.10
2017-09-11T13:20:34.183Z,55.10
2017-09-11T13:23:01.744Z,55.50
2017-09-11T13:25:29.271Z,55.10
2017-09-11T13:27:57.122Z,54.30
2017-09-11T13:30:25.210Z,53.70
2017-09-11T13:32:52.783Z,54.40
2017-09-11T13:35:20.307Z,54.90
2017-09-11T13:37:47.892Z,55.20
2017-09-11T13:40:15.455Z,55.30
2017-09-11T13:42:43.089Z,54.70
2017-09-11T13:45:10.623Z,54.50
2017-09-11T13:47:38.949Z,55.40
2017-09-11T13:50:06.479Z,55.20
2017-09-11T13:52:34.127Z,54.80
2017-09-11T13:55:01.683Z,54.60
2017-09-11T13:57:29.250Z,54.50
2017-09-11T13:59:57.544Z,54.00
2017-09-11T14:02:25.122Z,53.80
2017-09-11T14:04:52.674Z,53.20
2017-09-11T14:07:20.238Z,52.40
2017-09-11T14:09:47.771Z,52.50
2017-09-11T14:12:15.338Z,52.70
2017-09-11T14:14:42.879Z,51.70
2017-09-11T14:17:10.454Z,51.10
2017-09-11T14:19:38.756Z,49.50
2017-09-11T14:22:06.321Z,49.50
2017-09-11T14:24:33.839Z,50.90
2017-09-11T14:27:01.397Z,51.50
2017-09-11T14:29:28.934Z,50.30
2017-09-11T14:31:56.507Z,50.00
2017-09-11T14:34:24.062Z,49.40
2017-09-11T14:36:52.470Z,50.10
2017-09-11T14:39:20.011Z,50.10
2017-09-11T14:41:47.605Z,50.80
2017-09-11T14:44:15.128Z,51.40
2017-09-11T14:46:42.719Z,51.20
2017-09-11T14:49:11.021Z,51.80
2017-09-11T14:51:38.598Z,51.70
2017-09-11T14:54:06.156Z,51.30
2017-09-11T14:56:34.485Z,50.30
2017-09-11T14:59:02.063Z,50.30
2017-09-11T15:01:29.685Z,51.20
2017-09-11T15:03:57.243Z,50.80
2017-09-11T15:06:24.777Z,50.50
2017-09-11T15:08:52.417Z,50.30
2017-09-11T15:11:19.961Z,51.00
2017-09-11T15:13:47.522Z,51.20
2017-09-11T15:16:15.053Z,51.30
2017-09-11T15:18:42.615Z,51.20
2017-09-11T15:21:10.403Z,52.10
2017-09-11T15:23:39.726Z,52.60
2017-09-11T15:26:07.440Z,52.50
2017-09-11T15:28:35.771Z,52.20
2017-09-11T15:31:03.308Z,52.10
2017-09-11T15:33:30.866Z,51.80
2017-09-11T15:35:58.687Z,51.20
2017-09-11T15:38:26.254Z,51.30
2017-09-11T15:40:53.800Z,50.90
2017-09-11T15:43:21.401Z,51.40
2017-09-11T15:45:48.927Z,51.00
2017-09-11T15:48:17.267Z,51.50
2017-09-11T15:50:44.795Z,51.50
2017-09-11T15:53:12.328Z,51.40
2017-09-11T15:55:39.891Z,51.80
2017-09-11T15:58:07.426Z,51.90
2017-09-11T16:00:34.992Z,52.20
2017-09-11T16:03:02.535Z,52.50
2017-09-11T16:05:30.102Z,52.70
2017-09-11T16:07:58.458Z,53.20
2017-09-11T16:10:26.880Z,52.90
2017-09-11T16:12:54.737Z,52.90
2017-09-11T16:15:22.335Z,53.10
2017-09-11T16:17:49.879Z,53.10
2017-09-11T16:20:17.422Z,53.50
2017-09-11T16:22:45.845Z,53.70
2017-09-11T16:25:13.450Z,53.70
2017-09-11T16:27:41.135Z,54.10
2017-09-11T16:30:08.726Z,53.60
2017-09-11T16:32:37.112Z,52.70
2017-09-11T16:35:05.495Z,53.20
2017-09-11T16:37:33.148Z,53.20
2017-09-11T16:40:00.746Z,52.80
2017-09-11T16:42:28.459Z,53.10
2017-09-11T16:44:56.303Z,54.60
2017-09-11T16:47:23.994Z,53.60
2017-09-11T16:49:51.647Z,52.50
2017-09-11T16:52:19.334Z,54.70
2017-09-11T16:54:46.953Z,54.00
2017-09-11T16:57:15.409Z,56.70
2017-09-11T16:59:43.517Z,58.10
2017-09-11T17:02:11.194Z,58.50
2017-09-11T17:04:38.784Z,60.00
2017-09-11T17:07:06.441Z,59.80
2017-09-11T17:09:34.031Z,57.90
2017-09-11T17:12:02.402Z,59.70
2017-09-11T17:14:31.569Z,55.20
2017-09-11T17:16:59.252Z,55.20
2017-09-11T17:19:26.862Z,56.70
2017-09-11T17:21:55.375Z,57.10
2017-09-11T17:24:23.177Z,56.20
2017-09-11T17:26:50.893Z,54.30
2017-09-11T17:29:19.328Z,54.20
2017-09-11T17:31:46.926Z,54.20
2017-09-11T17:34:14.539Z,54.80
2017-09-11T17:36:42.150Z,54.80
2017-09-11T17:39:10.532Z,55.10
2017-09-11T17:41:38.125Z,55.10
2017-09-11T17:44:05.723Z,54.80
2017-09-11T17:46:33.321Z,54.50
2017-09-11T17:49:00.968Z,55.00
2017-09-11T17:51:28.685Z,53.60
2017-09-11T17:53:56.362Z,53.90
2017-09-11T17:56:23.969Z,53.30
2017-09-11T17:58:51.567Z,53.50
2017-09-11T18:01:19.306Z,52.40
2017-09-11T18:03:46.890Z,50.80
2017-09-11T18:06:15.301Z,50.60
2017-09-11T18:08:42.894Z,50.50
2017-09-11T18:11:11.316Z,49.90
2017-09-11T18:13:38.923Z,49.90
2017-09-11T18:16:07.351Z,49.60
2017-09-11T18:18:34.945Z,49.60
2017-09-11T18:21:02.613Z,49.30
2017-09-11T18:23:30.209Z,50.10
2017-09-11T18:25:58.602Z,49.60
2017-09-11T18:28:26.454Z,49.60
2017-09-11T18:30:54.102Z,50.10
2017-09-11T18:33:21.711Z,50.40
2017-09-11T18:35:49.348Z,50.60
2017-09-11T18:38:16.958Z,53.20
2017-09-11T18:40:44.636Z,54.00
2017-09-11T18:43:12.256Z,53.30
2017-09-11T18:45:39.921Z,53.70
2017-09-11T18:48:07.514Z,52.90
2017-09-11T18:50:35.941Z,51.20
2017-09-11T18:53:03.467Z,51.20
2017-09-11T18:55:31.062Z,51.50
2017-09-11T18:57:59.444Z,52.40
2017-09-11T19:00:28.868Z,51.90
2017-09-11T19:02:56.425Z,53.10
2017-09-11T19:05:24.035Z,52.20
2017-09-11T19:07:52.349Z,52.40
2017-09-11T19:10:19.923Z,52.50
2017-09-11T19:12:47.747Z,53.40
2017-09-11T19:15:15.317Z,54.80
2017-09-11T19:17:42.847Z,55.30
2017-09-11T19:20:10.432Z,55.80
2017-09-11T19:22:38.005Z,56.20
2017-09-11T19:25:05.565Z,57.10
2017-09-11T19:27:33.145Z,55.90
2017-09-11T19:30:00.681Z,54.40
2017-09-11T19:32:28.507Z,54.60
2017-09-11T19:34:56.104Z,54.70
2017-09-11T19:37:24.523Z,56.70
2017-09-11T19:39:52.082Z,56.70
2017-09-11T19:42:19.643Z,57.80
2017-09-11T19:44:47.187Z,57.70
2017-09-11T19:47:14.743Z,56.90
2017-09-11T19:49:43.045Z,57.40
2017-09-11T19:52:11.391Z,56.00
2017-09-11T19:54:38.919Z,55.90
2017-09-11T19:57:07.272Z,56.00
2017-09-11T19:59:35.592Z,57.40
2017-09-11T20:02:03.240Z,57.40
2017-09-11T20:04:30.782Z,58.20
2017-09-11T20:06:58.439Z,56.90
2017-09-11T20:09:26.145Z,56.40
2017-09-11T20:11:54.496Z,57.50
2017-09-11T20:14:22.112Z,57.50
2017-09-11T20:16:49.719Z,56.40
2017-09-11T20:19:17.329Z,56.70
2017-09-11T20:21:45.655Z,58.30
2017-09-11T20:24:13.211Z,58.30
2017-09-11T20:26:40.795Z,59.10
2017-09-11T20:29:09.105Z,58.10
2017-09-11T20:31:36.714Z,58.10
2017-09-11T20:34:04.270Z,58.50
2017-09-11T20:36:31.893Z,60.00
2017-09-11T20:39:00.224Z,62.30
2017-09-11T20:41:27.791Z,62.40
2017-09-11T20:43:56.091Z,59.30
2017-09-11T20:46:23.661Z,59.20
2017-09-11T20:48:51.225Z,58.80
2017-09-11T20:51:18.822Z,59.30
2017-09-11T20:53:46.368Z,58.10
2017-09-11T20:56:13.929Z,57.40
2017-09-11T20:58:41.475Z,56.70
2017-09-11T21:01:09.021Z,56.80
2017-09-11T21:03:37.375Z,57.10
2017-09-11T21:06:04.923Z,57.10
2017-09-11T21:08:32.492Z,57.30
2017-09-11T21:11:00.108Z,58.10
2017-09-11T21:13:27.688Z,59.00
2017-09-11T21:15:55.247Z,59.40
2017-09-11T21:18:22.848Z,59.90
2017-09-11T21:20:50.408Z,60.10
2017-09-11T21:23:18.210Z,60.90
2017-09-11T21:25:46.520Z,59.00
2017-09-11T21:28:14.102Z,59.00
2017-09-11T21:30:41.703Z,58.90
2017-09-11T21:33:09.312Z,59.10
2017-09-11T21:35:37.654Z,59.10
2017-09-11T21:38:05.175Z,59.10
2017-09-11T21:40:32.779Z,59.60
2017-09-11T21:43:01.234Z,57.40
2017-09-11T21:45:29.811Z,59.10
2017-09-11T21:47:57.346Z,59.10
2017-09-11T21:50:25.361Z,58.10
2017-09-11T21:52:53.999Z,59.90
2017-09-11T21:55:21.586Z,59.90
2017-09-11T21:57:49.144Z,59.20
2017-09-11T22:00:16.763Z,58.90
2017-09-11T22:02:44.291Z,59.40
2017-09-11T22:05:11.857Z,60.90
2017-09-11T22:07:39.400Z,61.00
2017-09-11T22:10:06.974Z,61.10
2017-09-11T22:12:34.552Z,61.60
2017-09-11T22:15:02.136Z,62.80
2017-09-11T22:17:29.666Z,61.80
2017-09-11T22:19:57.323Z,62.50
2017-09-11T22:22:24.962Z,63.50
2017-09-11T22:24:54.016Z,62.50
2017-09-11T22:27:21.691Z,63.50
2017-09-11T22:29:49.323Z,64.80
2017-09-11T22:32:16.948Z,65.10
2017-09-11T22:34:45.358Z,64.40
2017-09-11T22:37:12.983Z,64.40
2017-09-11T22:39:40.581Z,62.20
2017-09-11T22:42:08.121Z,61.50
2017-09-11T22:44:35.724Z,64.00
2017-09-11T22:47:03.559Z,65.00
2017-09-11T22:49:32.043Z,64.20
2017-09-11T22:52:00.731Z,63.60
2017-09-11T22:54:28.324Z,64.40
2017-09-11T22:56:56.672Z,64.90
2017-09-11T22:59:24.347Z,64.90
2017-09-11T23:01:51.954Z,66.80
2017-09-11T23:04:19.515Z,66.00
2017-09-11T23:06:47.043Z,63.80
2017-09-11T23:09:14.621Z,61.60
2017-09-11T23:11:42.914Z,60.70
2017-09-11T23:14:10.483Z,60.60
2017-09-11T23:16:38.553Z,60.10
2017-09-11T23:19:06.137Z,60.10
2017-09-11T23:21:33.667Z,60.60
2017-09-11T23:24:01.958Z,59.70
2017-09-11T23:26:29.523Z,59.80
2017-09-11T23:28:57.047Z,59.40
2017-09-11T23:31:24.625Z,59.50
2017-09-11T23:33:52.159Z,59.50
2017-09-11T23:36:19.730Z,59.10
2017-09-11T23:38:47.259Z,59.00
2017-09-11T23:41:14.838Z,59.20
2017-09-11T23:43:42.388Z,59.20
2017-09-11T23:46:10.678Z,59.40
2017-09-11T23:48:38.252Z,59.30
2017-09-11T23:51:05.789Z,59.60
2017-09-11T23:53:33.347Z,59.60
2017-09-11T23:56:00.891Z,59.60
2017-09-11T23:58:28.470Z,60.70
